createdAt,value
2023-02-01T00:00:35.426Z,101095.06
2023-02-01T00:03:02.592Z,101086.75
2023-02-01T00:05:29.552Z,101086.75
2023-02-01T00:07:56.603Z,101084.56
2023-02-01T00:10:23.873Z,101091.91
2023-02-01T00:12:51.183Z,101089.63
2023-02-01T00:15:18.268Z,101088.78
2023-02-01T00:17:45.166Z,101087.34
2023-02-01T00:20:12.702Z,101100.88
2023-02-01T00:22:39.711Z,101102.97
2023-02-01T00:25:07.514Z,101096.16
2023-02-01T00:27:34.453Z,101090.56
2023-02-01T00:30:01.535Z,101094.25
2023-02-01T00:32:28.461Z,101072.69
2023-02-01T00:34:55.345Z,101072.28
2023-02-01T00:37:22.693Z,101070.75
2023-02-01T00:39:50.669Z,101069.53
2023-02-01T00:42:17.727Z,101056.19
2023-02-01T00:44:44.627Z,101046.88
2023-02-01T00:47:11.624Z,101043.72
2023-02-01T00:49:38.493Z,101046.69
2023-02-01T00:52:05.886Z,101042.53
2023-02-01T00:54:33.957Z,101059.69
2023-02-01T00:57:00.922Z,101047.31
2023-02-01T00:59:27.793Z,101051.22
2023-02-01T01:01:54.980Z,101045.38
2023-02-01T01:04:21.932Z,101044.84
2023-02-01T01:06:48.987Z,101037.28
2023-02-01T01:09:15.852Z,101041.69
2023-02-01T01:11:42.788Z,101042.53
2023-02-01T01:14:10.820Z,101051.22
2023-02-01T01:16:38.397Z,101048.53
2023-02-01T01:19:05.997Z,101036.47
2023-02-01T01:21:32.972Z,101039.38
2023-02-01T01:24:01.108Z,101033.97
2023-02-01T01:26:30.229Z,101040.38
2023-02-01T01:28:58.884Z,101040.31
2023-02-01T01:31:26.469Z,101042.97
2023-02-01T01:34:02.810Z,101044.63
2023-02-01T01:36:30.785Z,101044.63
2023-02-01T01:38:57.889Z,101043.28
2023-02-01T01:41:32.764Z,101055.78
2023-02-01T01:44:06.670Z,101042.44
2023-02-01T01:46:39.089Z,101037.91
2023-02-01T01:49:16.679Z,101026.22
2023-02-01T01:51:52.697Z,101019.94
2023-02-01T01:54:34.763Z,101012.81
2023-02-01T01:57:21.993Z,100989.59
2023-02-01T02:00:04.503Z,100995.97
2023-02-01T02:02:31.482Z,100994.88
2023-02-01T02:04:58.389Z,100994.97
2023-02-01T02:10:06.884Z,101001.88
2023-02-01T02:12:34.340Z,101006.94
2023-02-01T02:15:01.374Z,101002.16
2023-02-01T02:17:28.186Z,101004.75
2023-02-01T02:20:33.239Z,100989.91
2023-02-01T02:23:40.669Z,101003.09
2023-02-01T02:26:57.366Z,101000.00
2023-02-01T02:29:49.388Z,101001.06
2023-02-01T02:33:23.098Z,101009.50
2023-02-01T02:36:07.965Z,100998.19
2023-02-01T02:39:03.649Z,100998.06
2023-02-01T02:42:05.727Z,101001.47
2023-02-01T02:45:03.328Z,100992.06
2023-02-01T02:48:09.920Z,101003.41
2023-02-01T02:51:38.538Z,101002.16
2023-02-01T02:54:39.149Z,100993.50
2023-02-01T02:57:29.337Z,101008.69
2023-02-01T03:00:18.670Z,100994.22
2023-02-01T03:03:06.559Z,100992.19
2023-02-01T03:05:40.888Z,100977.06
2023-02-01T03:08:20.742Z,100970.44
2023-02-01T03:11:08.845Z,100958.63
2023-02-01T03:14:01.210Z,100953.34
2023-02-01T03:16:43.666Z,100952.09
2023-02-01T03:19:28.522Z,100947.84
2023-02-01T03:22:02.740Z,100952.63
2023-02-01T03:24:40.467Z,100948.88
2023-02-01T03:27:29.225Z,100957.88
2023-02-01T03:30:20.496Z,100960.16
2023-02-01T03:33:01.145Z,100950.97
2023-02-01T03:35:42.924Z,100965.84
2023-02-01T03:38:54.110Z,100959.94
2023-02-01T03:41:35.101Z,100964.06
2023-02-01T03:44:24.289Z,100960.03
2023-02-01T03:47:00.415Z,100971.19
2023-02-01T03:49:46.439Z,100975.06
2023-02-01T03:52:24.501Z,100984.63
2023-02-01T03:54:53.558Z,100974.03
2023-02-01T03:57:27.880Z,100987.09
2023-02-01T03:59:54.791Z,100986.69
2023-02-01T04:02:21.721Z,100997.63
2023-02-01T04:04:48.636Z,101004.16
2023-02-01T04:07:15.638Z,101008.78
2023-02-01T04:09:43.042Z,101011.81
2023-02-01T04:12:10.101Z,100998.00
2023-02-01T04:14:37.189Z,100999.59
2023-02-01T04:17:04.210Z,100996.41
2023-02-01T04:19:31.260Z,100992.91
2023-02-01T04:21:58.153Z,100991.16
2023-02-01T04:24:25.075Z,100983.06
2023-02-01T04:26:52.111Z,100986.09
2023-02-01T04:29:19.103Z,100983.69
2023-02-01T04:31:47.273Z,100982.50
2023-02-01T04:34:14.303Z,100997.00
2023-02-01T04:36:41.412Z,100995.16
2023-02-01T04:39:10.823Z,100990.25
2023-02-01T04:41:37.709Z,100977.53
2023-02-01T04:44:04.780Z,100988.44
2023-02-01T04:46:32.032Z,100980.41
2023-02-01T04:48:59.025Z,100974.69
2023-02-01T04:51:25.877Z,100986.50
2023-02-01T04:53:52.761Z,100997.91
2023-02-01T04:56:19.809Z,100998.00
2023-02-01T04:58:46.779Z,100998.31
2023-02-01T05:01:13.672Z,100990.03
2023-02-01T05:03:40.717Z,100984.66
2023-02-01T05:06:07.665Z,100970.66
2023-02-01T05:08:34.748Z,100978.50
2023-02-01T05:11:03.587Z,100963.38
2023-02-01T05:13:49.229Z,100984.03
2023-02-01T05:16:17.108Z,100985.59
2023-02-01T05:18:44.093Z,100991.94
2023-02-01T05:21:11.061Z,100980.25
2023-02-01T05:23:58.056Z,100983.75
2023-02-01T05:26:25.850Z,100987.78
2023-02-01T05:28:53.048Z,100976.19
2023-02-01T05:31:20.064Z,100982.06
2023-02-01T05:33:47.118Z,100978.78
2023-02-01T05:36:14.520Z,100983.75
2023-02-01T05:38:41.686Z,100966.38
2023-02-01T05:41:09.310Z,100973.78
2023-02-01T05:43:36.286Z,100974.88
2023-02-01T05:46:03.420Z,100983.53
2023-02-01T05:48:30.439Z,100992.75
2023-02-01T05:50:57.458Z,100990.94
2023-02-01T05:53:24.404Z,100997.56
2023-02-01T05:55:51.317Z,100997.38
2023-02-01T05:58:18.229Z,100997.56
2023-02-01T06:00:45.186Z,100989.63
2023-02-01T06:03:12.098Z,100994.59
2023-02-01T06:05:39.082Z,100987.41
2023-02-01T06:08:08.398Z,100980.38
2023-02-01T06:10:35.474Z,100977.28
2023-02-01T06:13:03.892Z,100993.31
2023-02-01T06:15:32.178Z,100989.63
2023-02-01T06:17:59.053Z,100983.56
2023-02-01T06:20:26.152Z,100976.94
2023-02-01T06:22:53.570Z,100973.78
2023-02-01T06:25:22.250Z,100978.38
2023-02-01T06:27:49.444Z,100985.75
2023-02-01T06:30:16.734Z,100991.06
2023-02-01T06:32:44.152Z,100988.44
2023-02-01T06:35:16.884Z,100995.97
2023-02-01T06:37:44.266Z,100987.03
2023-02-01T06:40:11.984Z,100995.91
2023-02-01T06:42:40.114Z,101007.47
2023-02-01T06:45:08.177Z,101009.72
2023-02-01T06:47:35.236Z,101010.97
2023-02-01T06:50:02.355Z,101000.13
2023-02-01T06:52:29.300Z,101008.31
2023-02-01T06:54:56.771Z,101006.00
2023-02-01T06:57:23.672Z,101014.75
2023-02-01T06:59:50.656Z,101016.13
2023-02-01T07:02:17.658Z,101022.72
2023-02-01T07:04:44.560Z,101013.41
2023-02-01T07:07:11.915Z,101018.63
2023-02-01T07:09:38.863Z,101008.97
2023-02-01T07:12:06.423Z,101014.25
2023-02-01T07:14:33.288Z,101018.09
2023-02-01T07:17:00.230Z,101010.75
2023-02-01T07:19:27.105Z,101008.88
2023-02-01T07:21:54.011Z,101008.25
2023-02-01T07:24:21.317Z,101009.31
2023-02-01T07:26:48.970Z,101007.84
2023-02-01T07:29:15.983Z,101005.75
2023-02-01T07:31:42.858Z,101005.91
2023-02-01T07:34:09.824Z,101008.25
2023-02-01T07:36:37.285Z,100995.47
2023-02-01T07:39:05.042Z,100997.06
2023-02-01T07:41:33.000Z,100986.38
2023-02-01T07:43:59.977Z,100990.50
2023-02-01T07:46:26.999Z,100983.84
2023-02-01T07:48:54.960Z,100995.47
2023-02-01T07:51:22.035Z,100993.34
2023-02-01T07:53:49.070Z,100988.72
2023-02-01T07:56:19.350Z,100986.44
2023-02-01T07:58:55.690Z,100982.63
2023-02-01T08:01:26.446Z,100989.91
2023-02-01T08:04:03.147Z,100984.38
2023-02-01T08:06:33.549Z,100988.81
2023-02-01T08:09:00.905Z,100995.53
2023-02-01T08:11:28.275Z,101007.97
2023-02-01T08:13:55.547Z,101012.09
2023-02-01T08:16:24.321Z,101019.34
2023-02-01T08:18:52.334Z,101009.44
2023-02-01T08:21:26.495Z,101006.75
2023-02-01T08:23:53.920Z,101021.31
2023-02-01T08:26:26.367Z,101034.03
2023-02-01T08:28:57.398Z,101032.38
2023-02-01T08:31:27.397Z,101039.53
2023-02-01T08:33:57.851Z,101026.28
2023-02-01T08:36:26.891Z,101043.47
2023-02-01T08:38:54.076Z,101040.81
2023-02-01T08:41:25.475Z,101027.81
2023-02-01T08:43:53.778Z,101034.84
2023-02-01T08:46:21.323Z,101042.28
2023-02-01T08:48:49.710Z,101038.78
2023-02-01T08:51:20.249Z,101043.00
2023-02-01T08:53:47.750Z,101047.81
2023-02-01T08:56:17.849Z,101040.22
2023-02-01T08:58:45.299Z,101044.81
2023-02-01T09:01:20.933Z,101049.78
2023-02-01T09:03:47.998Z,101044.25
2023-02-01T09:06:16.343Z,101045.91
2023-02-01T09:08:44.185Z,101043.53
2023-02-01T09:11:19.851Z,101036.19
2023-02-01T09:13:47.995Z,101040.00
2023-02-01T09:16:15.244Z,101035.38
2023-02-01T09:18:50.917Z,101023.41
2023-02-01T09:21:29.351Z,101030.63
2023-02-01T09:23:56.342Z,101038.38
2023-02-01T09:26:31.517Z,101044.31
2023-02-01T09:29:01.498Z,101025.69
2023-02-01T09:31:28.560Z,101027.13
2023-02-01T09:33:55.704Z,101027.22
2023-02-01T09:36:24.379Z,101033.94
2023-02-01T09:38:53.894Z,101039.00
2023-02-01T09:41:49.878Z,101027.25
2023-02-01T09:45:07.770Z,101045.34
2023-02-01T09:47:37.273Z,101047.47
2023-02-01T09:50:21.644Z,101048.06
2023-02-01T09:52:58.958Z,101052.50
2023-02-01T09:55:42.136Z,101061.00
2023-02-01T09:58:36.034Z,101072.06
2023-02-01T10:01:05.663Z,101082.41
2023-02-01T10:03:37.537Z,101086.25
2023-02-01T10:06:07.261Z,101084.91
2023-02-01T10:09:21.834Z,101080.75
2023-02-01T10:12:39.350Z,101071.22
2023-02-01T10:15:57.574Z,101070.63
2023-02-01T10:19:14.293Z,101074.34
2023-02-01T10:22:10.618Z,101057.41
2023-02-01T10:25:09.567Z,101075.56
2023-02-01T10:27:40.612Z,101079.84
2023-02-01T10:30:35.753Z,101066.28
2023-02-01T10:33:26.636Z,101077.38
2023-02-01T10:36:30.521Z,101081.28
2023-02-01T10:39:01.707Z,101084.09
2023-02-01T10:41:36.242Z,101083.25
2023-02-01T10:44:10.731Z,101085.50
2023-02-01T10:46:37.784Z,101102.69
2023-02-01T10:49:24.059Z,101090.50
2023-02-01T10:52:45.439Z,101096.50
2023-02-01T10:55:49.007Z,101095.97
2023-02-01T10:58:22.592Z,101085.91
2023-02-01T11:01:05.505Z,101084.06
2023-02-01T11:03:46.360Z,101078.88
2023-02-01T11:06:44.788Z,101075.78
2023-02-01T11:09:18.983Z,101074.13
2023-02-01T11:11:49.080Z,101067.09
2023-02-01T11:14:40.308Z,101055.94
2023-02-01T11:17:18.230Z,101048.38
2023-02-01T11:19:58.127Z,101047.00
2023-02-01T11:22:28.934Z,101033.97
2023-02-01T11:24:56.287Z,101022.59
2023-02-01T11:27:27.891Z,101033.69
2023-02-01T11:30:00.949Z,101015.88
2023-02-01T11:32:28.953Z,101007.19
2023-02-01T11:35:08.096Z,101001.75
2023-02-01T11:37:39.910Z,101002.97
2023-02-01T11:40:19.142Z,101003.88
2023-02-01T11:42:59.071Z,101002.34
2023-02-01T11:45:30.550Z,101003.06
2023-02-01T11:47:59.388Z,100998.13
2023-02-01T11:51:07.892Z,101006.59
2023-02-01T11:53:43.639Z,101005.66
2023-02-01T11:56:53.027Z,101005.53
2023-02-01T11:59:51.690Z,101005.66
2023-02-01T12:03:06.881Z,101005.88
2023-02-01T12:05:52.060Z,101001.09
2023-02-01T12:08:38.940Z,101010.50
2023-02-01T12:11:46.637Z,100994.06
2023-02-01T12:15:06.025Z,100995.63
2023-02-01T12:18:04.277Z,100999.22
2023-02-01T12:20:51.616Z,100992.84
2023-02-01T12:23:25.040Z,100999.44
2023-02-01T12:26:41.724Z,100990.75
2023-02-01T12:29:53.207Z,100985.28
2023-02-01T12:32:57.244Z,100994.06
2023-02-01T12:35:48.684Z,100972.75
2023-02-01T12:38:30.717Z,100985.19
2023-02-01T12:41:30.150Z,100981.94
2023-02-01T12:44:14.149Z,100975.84
2023-02-01T12:47:19.819Z,100973.59
2023-02-01T12:49:55.702Z,100965.31
2023-02-01T12:52:37.333Z,100951.44
2023-02-01T12:55:34.662Z,100948.31
2023-02-01T12:58:43.514Z,100950.50
2023-02-01T13:01:24.273Z,100946.78
2023-02-01T13:04:16.204Z,100936.66
2023-02-01T13:06:56.295Z,100939.63
2023-02-01T13:09:45.360Z,100941.09
2023-02-01T13:12:23.386Z,100946.50
2023-02-01T13:14:58.729Z,100942.75
2023-02-01T13:17:32.775Z,100945.00
2023-02-01T13:20:17.519Z,100937.56
2023-02-01T13:22:51.494Z,100920.19
2023-02-01T13:25:37.007Z,100904.28
2023-02-01T13:28:19.615Z,100897.22
2023-02-01T13:31:21.467Z,100907.34
2023-02-01T13:34:24.848Z,100904.13
2023-02-01T13:37:03.465Z,100897.63
2023-02-01T13:39:44.494Z,100903.22
2023-02-01T13:42:29.406Z,100894.31
2023-02-01T13:45:14.326Z,100893.16
2023-02-01T13:47:46.076Z,100878.88
2023-02-01T13:50:32.006Z,100890.06
2023-02-01T13:53:16.200Z,100899.25
2023-02-01T13:55:56.773Z,100889.63
2023-02-01T13:58:42.459Z,100904.22
2023-02-01T14:01:24.759Z,100913.13
2023-02-01T14:04:03.146Z,100908.66
2023-02-01T14:06:33.717Z,100905.00
2023-02-01T14:09:12.584Z,100904.59
2023-02-01T14:11:54.558Z,100897.13
2023-02-01T14:14:38.959Z,100894.66
2023-02-01T14:17:11.991Z,100907.13
2023-02-01T14:19:39.044Z,100899.13
2023-02-01T14:22:20.943Z,100909.25
2023-02-01T14:24:55.082Z,100909.56
2023-02-01T14:27:29.686Z,100902.72
2023-02-01T14:30:06.352Z,100886.97
2023-02-01T14:32:39.307Z,100898.97
2023-02-01T14:35:29.563Z,100907.69
2023-02-01T14:38:03.762Z,100898.97
2023-02-01T14:40:31.946Z,100890.84
2023-02-01T14:42:58.901Z,100902.00
2023-02-01T14:45:29.442Z,100900.38
2023-02-01T14:48:08.450Z,100912.63
2023-02-01T14:50:41.892Z,100909.56
2023-02-01T14:53:12.463Z,100904.09
2023-02-01T14:55:43.155Z,100904.00
2023-02-01T14:58:37.969Z,100908.25
2023-02-01T15:01:24.596Z,100905.31
2023-02-01T15:04:12.249Z,100916.81
2023-02-01T15:06:58.244Z,100912.75
2023-02-01T15:09:40.219Z,100908.13
2023-02-01T15:12:27.813Z,100922.59
2023-02-01T15:15:22.897Z,100924.47
2023-02-01T15:17:56.499Z,100920.25
2023-02-01T15:20:31.302Z,100926.34
2023-02-01T15:23:02.669Z,100943.09
2023-02-01T15:25:39.579Z,100938.97
2023-02-01T15:28:13.599Z,100941.78
2023-02-01T15:31:14.270Z,100929.66
2023-02-01T15:34:00.712Z,100940.38
2023-02-01T15:36:29.767Z,100933.56
2023-02-01T15:39:26.769Z,100939.78
2023-02-01T15:41:55.273Z,100938.53
2023-02-01T15:44:41.425Z,100938.13
2023-02-01T15:47:18.262Z,100930.47
2023-02-01T15:49:52.658Z,100938.75
2023-02-01T15:52:36.632Z,100935.28
2023-02-01T15:55:18.971Z,100936.88
2023-02-01T15:57:46.279Z,100926.75
2023-02-01T16:00:46.492Z,100929.81
2023-02-01T16:03:37.021Z,100921.78
2023-02-01T16:06:26.701Z,100929.88
2023-02-01T16:09:01.376Z,100924.56
2023-02-01T16:11:32.688Z,100925.66
2023-02-01T16:14:01.220Z,100935.78
2023-02-01T16:16:30.391Z,100945.13
2023-02-01T16:18:57.523Z,100949.41
2023-02-01T16:21:24.864Z,100956.88
2023-02-01T16:23:52.859Z,100958.28
2023-02-01T16:26:21.162Z,100960.81
2023-02-01T16:28:49.027Z,100953.56
2023-02-01T16:31:27.720Z,100957.91
2023-02-01T16:33:54.808Z,100978.63
2023-02-01T16:36:22.512Z,100978.25
2023-02-01T16:38:50.442Z,100989.53
2023-02-01T16:41:20.475Z,100994.69
2023-02-01T16:43:52.358Z,100987.22
2023-02-01T16:46:23.671Z,100998.84
2023-02-01T16:48:57.930Z,101003.06
2023-02-01T16:51:29.505Z,101006.16
2023-02-01T16:53:56.614Z,100999.22
2023-02-01T16:56:30.904Z,100995.53
2023-02-01T16:58:58.331Z,100994.69
2023-02-01T17:01:26.100Z,100989.53
2023-02-01T17:03:53.238Z,100981.44
2023-02-01T17:06:24.417Z,100990.88
2023-02-01T17:08:55.270Z,100997.19
2023-02-01T17:11:22.434Z,100990.34
2023-02-01T17:13:49.485Z,100982.38
2023-02-01T17:16:36.674Z,100983.81
2023-02-01T17:19:15.057Z,100978.97
2023-02-01T17:21:54.919Z,100978.16
2023-02-01T17:24:25.883Z,100969.56
2023-02-01T17:26:54.478Z,100983.31
2023-02-01T17:29:22.969Z,100982.88
2023-02-01T17:31:54.954Z,100992.22
2023-02-01T17:34:23.033Z,100988.28
2023-02-01T17:36:50.508Z,100988.59
2023-02-01T17:39:36.920Z,100983.53
2023-02-01T17:42:11.950Z,100997.91
2023-02-01T17:44:38.862Z,100992.72
2023-02-01T17:47:05.755Z,101005.75
2023-02-01T17:49:34.648Z,100988.06
2023-02-01T17:52:01.940Z,100978.34
2023-02-01T17:54:28.840Z,100976.50
2023-02-01T17:56:57.148Z,100988.69
2023-02-01T17:59:24.217Z,100975.88
2023-02-01T18:01:51.933Z,100982.88
2023-02-01T18:04:19.876Z,100978.88
2023-02-01T18:06:46.848Z,100979.41
2023-02-01T18:09:13.765Z,100972.97
2023-02-01T18:11:41.761Z,100979.59
2023-02-01T18:14:13.201Z,100974.00
2023-02-01T18:16:41.716Z,100975.13
2023-02-01T18:19:08.798Z,100991.47
2023-02-01T18:21:42.360Z,100996.34
2023-02-01T18:24:17.186Z,100993.66
2023-02-01T18:26:44.386Z,100998.94
2023-02-01T18:29:11.736Z,101005.88
2023-02-01T18:31:46.328Z,101003.91
2023-02-01T18:34:21.162Z,100998.41
2023-02-01T18:36:51.300Z,100999.44
2023-02-01T18:39:18.383Z,101001.09
2023-02-01T18:41:48.873Z,101002.97
2023-02-01T18:44:17.736Z,100985.41
2023-02-01T18:46:45.088Z,100988.69
2023-02-01T18:49:13.972Z,100986.31
2023-02-01T18:51:42.530Z,101001.63
2023-02-01T18:54:12.195Z,101001.53
2023-02-01T18:56:39.819Z,100993.56
2023-02-01T18:59:06.787Z,100993.16
2023-02-01T19:01:33.963Z,100992.22
2023-02-01T19:04:07.301Z,100996.34
2023-02-01T19:06:39.743Z,100992.63
2023-02-01T19:09:06.757Z,100982.59
2023-02-01T19:11:33.655Z,100984.97
2023-02-01T19:14:00.611Z,100973.19
2023-02-01T19:16:27.543Z,100987.97
2023-02-01T19:18:54.445Z,100990.97
2023-02-01T19:21:21.314Z,100974.22
2023-02-01T19:23:48.264Z,100983.63
2023-02-01T19:26:17.634Z,100982.38
2023-02-01T19:28:47.607Z,100979.78
2023-02-01T19:31:16.426Z,100988.28
2023-02-01T19:33:43.664Z,100987.44
2023-02-01T19:36:11.157Z,100993.88
2023-02-01T19:38:38.575Z,100995.09
2023-02-01T19:41:06.790Z,100999.13
2023-02-01T19:43:34.005Z,100996.25
2023-02-01T19:46:02.890Z,100994.50
2023-02-01T19:48:31.604Z,100991.19
2023-02-01T19:50:59.226Z,100993.06
2023-02-01T19:53:28.050Z,101005.88
2023-02-01T19:55:57.372Z,101009.28
2023-02-01T19:58:26.238Z,101022.41
2023-02-01T20:00:56.754Z,101018.72
2023-02-01T20:03:24.289Z,101022.63
2023-02-01T20:05:53.224Z,101039.19
2023-02-01T20:08:20.832Z,101043.41
2023-02-01T20:10:48.157Z,101046.63
2023-02-01T20:13:15.902Z,101042.91
2023-02-01T20:15:43.030Z,101042.91
2023-02-01T20:18:10.478Z,101047.88
2023-02-01T20:20:37.659Z,101048.72
2023-02-01T20:23:04.536Z,101065.19
2023-02-01T20:25:32.325Z,101057.41
2023-02-01T20:27:59.328Z,101058.84
2023-02-01T20:30:27.007Z,101057.41
2023-02-01T20:32:53.890Z,101056.69
2023-02-01T20:35:22.365Z,101040.84
2023-02-01T20:37:50.504Z,101049.31
2023-02-01T20:40:18.032Z,101052.34
2023-02-01T20:42:45.032Z,101058.03
2023-02-01T20:45:12.241Z,101049.31
2023-02-01T20:47:41.358Z,101054.22
2023-02-01T20:50:09.509Z,101049.75
2023-02-01T20:52:36.450Z,101047.06
2023-02-01T20:55:03.534Z,101057.81
2023-02-01T20:57:30.413Z,101060.72
2023-02-01T20:59:57.770Z,101055.84
2023-02-01T21:02:24.942Z,101063.78
2023-02-01T21:04:51.919Z,101055.97
2023-02-01T21:07:18.999Z,101047.28
2023-02-01T21:09:45.925Z,101045.63
2023-02-01T21:12:13.013Z,101033.28
2023-02-01T21:14:39.942Z,101029.16
2023-02-01T21:17:06.865Z,101036.09
2023-02-01T21:19:43.031Z,101041.56
2023-02-01T21:22:15.439Z,101032.16
2023-02-01T21:24:42.911Z,101032.03
2023-02-01T21:27:10.946Z,101032.38
2023-02-01T21:29:38.143Z,101032.75
2023-02-01T21:32:07.014Z,101030.09
2023-02-01T21:34:35.258Z,101018.28
2023-02-01T21:37:02.293Z,101025.81
2023-02-01T21:39:29.229Z,101034.63
2023-02-01T21:42:16.665Z,101016.13
2023-02-01T21:44:47.357Z,101018.28
2023-02-01T21:47:17.281Z,101027.28
2023-02-01T21:49:46.484Z,101023.03
2023-02-01T21:52:16.164Z,101041.06
2023-02-01T21:54:43.725Z,101035.78
2023-02-01T21:57:13.819Z,101033.41
2023-02-01T21:59:43.280Z,101041.66
2023-02-01T22:02:16.215Z,101050.13
2023-02-01T22:04:44.180Z,101037.31
2023-02-01T22:07:12.038Z,101039.41
2023-02-01T22:09:39.076Z,101042.09
2023-02-01T22:12:08.349Z,101045.28
2023-02-01T22:14:35.317Z,101049.31
2023-02-01T22:17:02.277Z,101045.19
2023-02-01T22:19:29.189Z,101048.28
2023-02-01T22:21:56.127Z,101067.13
2023-02-01T22:24:23.120Z,101053.44
2023-02-01T22:26:50.491Z,101058.31
2023-02-01T22:29:19.254Z,101058.00
2023-02-01T22:31:46.435Z,101065.47
2023-02-01T22:34:13.625Z,101059.88
2023-02-01T22:36:40.525Z,101053.78
2023-02-01T22:39:07.728Z,101060.19
2023-02-01T22:41:34.827Z,101058.22
2023-02-01T22:44:01.808Z,101067.84
2023-02-01T22:46:31.390Z,101067.94
2023-02-01T22:48:59.323Z,101079.00
2023-02-01T22:51:29.404Z,101076.81
2023-02-01T22:53:57.728Z,101076.44
2023-02-01T22:56:30.382Z,101074.06
2023-02-01T22:59:00.523Z,101081.59
2023-02-01T23:01:28.707Z,101092.16
2023-02-01T23:04:01.581Z,101085.50
2023-02-01T23:06:29.669Z,101089.03
2023-02-01T23:09:05.579Z,101097.50
2023-02-01T23:11:32.764Z,101089.56
2023-02-01T23:13:59.712Z,101090.59
2023-02-01T23:16:26.597Z,101085.72
2023-02-01T23:18:53.638Z,101079.09
2023-02-01T23:21:23.063Z,101056.53
2023-02-01T23:23:57.031Z,101065.25
2023-02-01T23:26:27.685Z,101064.94
2023-02-01T23:28:56.999Z,101052.00
2023-02-01T23:31:30.493Z,101063.72
2023-02-01T23:33:59.481Z,101068.34
2023-02-01T23:36:29.052Z,101067.19
2023-02-01T23:38:56.135Z,101062.53
2023-02-01T23:41:24.338Z,101065.66
2023-02-01T23:44:00.956Z,101068.16
2023-02-01T23:46:48.729Z,101064.81
2023-02-01T23:49:17.511Z,101064.16
2023-02-01T23:51:47.580Z,101080.13
2023-02-01T23:54:14.529Z,101075.81
2023-02-01T23:56:44.660Z,101070.09
2023-02-01T23:59:18.564Z,101066.47
